sensor_id;sensor_type;location;lat;lon;timestamp;pressure;altitude;pressure_sealevel;temperature;humidity
73821;BME280;62150;43.582;1.456;2023-01-29T06:40:09;101091.00;;;4.01;100.00
73821;BME280;62150;43.582;1.456;2023-01-29T06:42:37;101092.72;;;4.09;100.00
73821;BME280;62150;43.582;1.456;2023-01-29T06:45:05;101099.38;;;3.82;100.00
73821;BME280;62150;43.582;1.456;2023-01-29T06:47:32;101096.88;;;3.81;100.00
73821;BME280;62150;43.582;1.456;2023-01-29T06:50:00;101110.50;;;4.09;100.00
73821;BME280;62150;43.582;1.456;2023-01-29T06:52:28;101108.78;;;4.03;100.00
73821;BME280;62150;43.582;1.456;2023-01-29T06:54:56;101111.34;;;4.08;100.00
73821;BME280;62150;43.582;1.456;2023-01-29T06:57:27;101102.84;;;3.99;100.00
73821;BME280;62150;43.582;1.456;2023-01-29T06:59:54;101107.94;;;4.01;100.00
73821;BME280;62150;43.582;1.456;2023-01-29T07:02:22;101108.78;;;4.00;100.00
73821;BME280;62150;43.582;1.456;2023-01-29T07:04:49;101113.81;;;3.89;100.00
73821;BME280;62150;43.582;1.456;2023-01-29T07:07:17;101119.00;;;4.20;100.00
73821;BME280;62150;43.582;1.456;2023-01-29T07:09:44;101114.72;;;4.03;100.00
73821;BME280;62150;43.582;1.456;2023-01-29T07:12:12;101113.06;;;4.24;100.00
73821;BME280;62150;43.582;1.456;2023-01-29T07:14:41;101124.06;;;4.17;100.00
73821;BME280;62150;43.582;1.456;2023-01-29T07:17:11;101124.94;;;4.16;100.00
73821;BME280;62150;43.582;1.456;2023-01-29T07:19:39;101135.88;;;3.98;100.00
73821;BME280;62150;43.582;1.456;2023-01-29T07:22:07;101140.13;;;4.00;100.00
73821;BME280;62150;43.582;1.456;2023-01-29T07:24:34;101147.84;;;4.29;100.00
73821;BME280;62150;43.582;1.456;2023-01-29T07:27:02;101146.09;;;4.06;100.00
73821;BME280;62150;43.582;1.456;2023-01-29T07:29:29;101144.44;;;4.11;100.00
73821;BME280;62150;43.582;1.456;2023-01-29T07:31:59;101144.44;;;4.23;100.00
73821;BME280;62150;43.582;1.456;2023-01-29T07:34:26;101152.72;;;3.68;100.00
73821;BME280;62150;43.582;1.456;2023-01-29T07:36:54;101161.22;;;3.81;100.00
73821;BME280;62150;43.582;1.456;2023-01-29T07:39:22;101163.84;;;3.96;100.00
73821;BME280;62150;43.582;1.456;2023-01-29T07:41:49;101168.19;;;4.25;100.00
73821;BME280;62150;43.582;1.456;2023-01-29T07:44:18;101173.31;;;4.31;100.00
73821;BME280;62150;43.582;1.456;2023-01-29T07:46:45;101175.91;;;4.46;100.00
73821;BME280;62150;43.582;1.456;2023-01-29T07:49:14;101169.81;;;4.03;100.00
73821;BME280;62150;43.582;1.456;2023-01-29T07:51:42;101181.69;;;4.06;100.00
73821;BME280;62150;43.582;1.456;2023-01-29T07:54:09;101174.09;;;4.12;100.00
73821;BME280;62150;43.582;1.456;2023-01-29T07:56:37;101176.66;;;4.22;100.00
73821;BME280;62150;43.582;1.456;2023-01-29T07:59:04;101192.72;;;4.04;100.00
73821;BME280;62150;43.582;1.456;2023-01-29T08:01:31;101195.34;;;4.29;100.00
73821;BME280;62150;43.582;1.456;2023-01-29T08:03:59;101189.38;;;4.25;100.00
73821;BME280;62150;43.582;1.456;2023-01-29T08:06:28;101190.28;;;4.38;100.00
73821;BME280;62150;43.582;1.456;2023-01-29T08:08:55;101189.34;;;4.09;100.00
73821;BME280;62150;43.582;1.456;2023-01-29T08:11:24;101194.56;;;4.47;100.00
73821;BME280;62150;43.582;1.456;2023-01-29T08:13:52;101198.75;;;4.35;100.00
73821;BME280;62150;43.582;1.456;2023-01-29T08:16:20;101209.00;;;4.58;100.00
73821;BME280;62150;43.582;1.456;2023-01-29T08:18:50;101208.84;;;4.17;100.00
73821;BME280;62150;43.582;1.456;2023-01-29T08:21:18;101208.88;;;4.25;100.00
73821;BME280;62150;43.582;1.456;2023-01-29T08:23:46;101196.19;;;4.32;100.00
73821;BME280;62150;43.582;1.456;2023-01-29T08:26:14;101199.63;;;4.39;100.00
73821;BME280;62150;43.582;1.456;2023-01-29T08:28:41;101206.41;;;4.40;100.00
73821;BME280;62150;43.582;1.456;2023-01-29T08:31:13;101203.03;;;4.53;100.00
73821;BME280;62150;43.582;1.456;2023-01-29T08:33:41;101203.03;;;4.47;100.00
73821;BME280;62150;43.582;1.456;2023-01-29T08:36:09;101208.13;;;4.43;100.00
73821;BME280;62150;43.582;1.456;2023-01-29T08:38:37;101202.09;;;4.27;100.00
73821;BME280;62150;43.582;1.456;2023-01-29T08:41:06;101200.44;;;4.29;100.00
73821;BME280;62150;43.582;1.456;2023-01-29T08:43:34;101209.84;;;4.59;100.00
73821;BME280;62150;43.582;1.456;2023-01-29T08:46:03;101211.47;;;4.32;100.00
73821;BME280;62150;43.582;1.456;2023-01-29T08:48:30;101214.09;;;4.60;100.00
73821;BME280;62150;43.582;1.456;2023-01-29T08:50:58;101221.78;;;4.83;100.00
73821;BME280;62150;43.582;1.456;2023-01-29T08:53:26;101223.41;;;4.59;100.00
73821;BME280;62150;43.582;1.456;2023-01-29T08:55:54;101229.41;;;4.87;100.00
73821;BME280;62150;43.582;1.456;2023-01-29T08:58:23;101218.31;;;4.53;100.00
73821;BME280;62150;43.582;1.456;2023-01-29T09:00:50;101212.44;;;4.89;100.00
73821;BME280;62150;43.582;1.456;2023-01-29T09:03:18;101226.03;;;4.94;100.00
73821;BME280;62150;43.582;1.456;2023-01-29T09:05:45;101215.00;;;4.82;100.00
73821;BME280;62150;43.582;1.456;2023-01-29T09:08:13;101219.16;;;4.54;100.00
73821;BME280;62150;43.582;1.456;2023-01-29T09:10:40;101223.41;;;4.59;100.00
73821;BME280;62150;43.582;1.456;2023-01-29T09:13:08;101221.72;;;4.64;100.00
73821;BME280;62150;43.582;1.456;2023-01-29T09:15:37;101226.84;;;4.86;100.00
73821;BME280;62150;43.582;1.456;2023-01-29T09:18:05;101224.34;;;5.05;100.00
73821;BME280;62150;43.582;1.456;2023-01-29T09:20:32;101223.50;;;5.03;100.00
73821;BME280;62150;43.582;1.456;2023-01-29T09:23:04;101229.47;;;5.12;100.00
73821;BME280;62150;43.582;1.456;2023-01-29T09:25:32;101226.06;;;5.48;100.00
73821;BME280;62150;43.582;1.456;2023-01-29T09:27:59;101220.97;;;5.07;100.00
73821;BME280;62150;43.582;1.456;2023-01-29T09:30:27;101223.50;;;5.23;100.00
73821;BME280;62150;43.582;1.456;2023-01-29T09:32:56;101220.97;;;5.46;100.00
73821;BME280;62150;43.582;1.456;2023-01-29T09:35:23;101226.88;;;5.56;100.00
73821;BME280;62150;43.582;1.456;2023-01-29T09:37:51;101218.38;;;5.66;100.00
73821;BME280;62150;43.582;1.456;2023-01-29T09:40:24;101220.91;;;5.78;100.00
73821;BME280;62150;43.582;1.456;2023-01-29T09:42:56;101231.16;;;5.52;100.00
73821;BME280;62150;43.582;1.456;2023-01-29T09:45:28;101235.38;;;5.55;100.00
73821;BME280;62150;43.582;1.456;2023-01-29T09:47:59;101230.22;;;6.03;100.00
73821;BME280;62150;43.582;1.456;2023-01-29T09:50:30;101233.63;;;5.98;100.00
73821;BME280;62150;43.582;1.456;2023-01-29T09:53:03;101231.94;;;5.86;100.00
73821;BME280;62150;43.582;1.456;2023-01-29T09:55:40;101234.50;;;5.88;100.00
73821;BME280;62150;43.582;1.456;2023-01-29T09:58:13;101231.94;;;5.83;100.00
73821;BME280;62150;43.582;1.456;2023-01-29T10:00:50;101232.00;;;5.54;100.00
73821;BME280;62150;43.582;1.456;2023-01-29T10:03:34;101232.78;;;5.94;100.00
73821;BME280;62150;43.582;1.456;2023-01-29T10:06:19;101242.16;;;5.79;100.00
73821;BME280;62150;43.582;1.456;2023-01-29T10:11:52;101245.56;;;5.82;100.00
73821;BME280;62150;43.582;1.456;2023-01-29T10:14:32;101238.69;;;6.18;100.00
73821;BME280;62150;43.582;1.456;2023-01-29T10:17:15;101254.03;;;5.87;100.00
73821;BME280;62150;43.582;1.456;2023-01-29T10:20:01;101249.78;;;6.01;100.00
73821;BME280;62150;43.582;1.456;2023-01-29T10:22:44;101253.22;;;5.62;100.00
73821;BME280;62150;43.582;1.456;2023-01-29T10:25:16;101252.34;;;5.89;100.00
73821;BME280;62150;43.582;1.456;2023-01-29T10:27:49;101242.72;;;6.61;100.00
73821;BME280;62150;43.582;1.456;2023-01-29T10:30:26;101252.97;;;6.57;100.00
73821;BME280;62150;43.582;1.456;2023-01-29T10:32:55;101252.28;;;6.15;100.00
73821;BME280;62150;43.582;1.456;2023-01-29T10:35:30;101254.78;;;6.33;100.00
73821;BME280;62150;43.582;1.456;2023-01-29T10:38:14;101238.63;;;6.24;100.00
73821;BME280;62150;43.582;1.456;2023-01-29T10:40:48;101246.38;;;5.93;100.00
73821;BME280;62150;43.582;1.456;2023-01-29T10:43:25;101240.22;;;6.54;100.00
73821;BME280;62150;43.582;1.456;2023-01-29T10:46:06;101240.94;;;6.79;100.00
73821;BME280;62150;43.582;1.456;2023-01-29T10:48:48;101239.31;;;6.62;100.00
73821;BME280;62150;43.582;1.456;2023-01-29T10:51:37;101231.88;;;6.23;100.00
73821;BME280;62150;43.582;1.456;2023-01-29T10:54:29;101228.38;;;6.41;100.00
73821;BME280;62150;43.582;1.456;2023-01-29T10:57:09;101236.91;;;6.29;100.00
73821;BME280;62150;43.582;1.456;2023-01-29T11:00:06;101230.75;;;6.74;100.00
73821;BME280;62150;43.582;1.456;2023-01-29T11:02:42;101231.59;;;6.73;100.00
73821;BME280;62150;43.582;1.456;2023-01-29T11:05:18;101232.25;;;7.01;100.00
73821;BME280;62150;43.582;1.456;2023-01-29T11:07:48;101231.50;;;6.93;100.00
73821;BME280;62150;43.582;1.456;2023-01-29T11:10:22;101228.34;;;6.51;100.00
73821;BME280;62150;43.582;1.456;2023-01-29T11:12:51;101224.59;;;7.01;100.00
73821;BME280;62150;43.582;1.456;2023-01-29T11:15:23;101228.22;;;6.69;100.00
73821;BME280;62150;43.582;1.456;2023-01-29T11:18:04;101218.56;;;7.13;100.00
73821;BME280;62150;43.582;1.456;2023-01-29T11:20:33;101206.53;;;7.25;100.00
73821;BME280;62150;43.582;1.456;2023-01-29T11:23:02;101206.88;;;6.83;100.00
73821;BME280;62150;43.582;1.456;2023-01-29T11:25:30;101206.09;;;6.70;100.00
73821;BME280;62150;43.582;1.456;2023-01-29T11:28:00;101202.41;;;7.07;100.00
73821;BME280;62150;43.582;1.456;2023-01-29T11:30:31;101199.44;;;6.40;100.00
73821;BME280;62150;43.582;1.456;2023-01-29T11:33:09;101188.09;;;6.87;100.00
73821;BME280;62150;43.582;1.456;2023-01-29T11:35:38;101192.50;;;6.60;100.00
73821;BME280;62150;43.582;1.456;2023-01-29T11:38:16;101189.06;;;6.67;100.00
73821;BME280;62150;43.582;1.456;2023-01-29T11:40:45;101190.66;;;6.90;100.00
73821;BME280;62150;43.582;1.456;2023-01-29T11:43:22;101178.88;;;6.66;100.00
73821;BME280;62150;43.582;1.456;2023-01-29T11:45:52;101172.00;;;6.77;100.00
73821;BME280;62150;43.582;1.456;2023-01-29T11:48:21;101168.53;;;6.84;100.00
73821;BME280;62150;43.582;1.456;2023-01-29T11:50:55;101171.75;;;7.06;100.00
73821;BME280;62150;43.582;1.456;2023-01-29T11:53:36;101169.81;;;7.34;100.00
73821;BME280;62150;43.582;1.456;2023-01-29T11:56:14;101173.41;;;7.13;100.00
73821;BME280;62150;43.582;1.456;2023-01-29T11:58:43;101170.13;;;6.97;100.00
73821;BME280;62150;43.582;1.456;2023-01-29T12:01:13;101170.84;;;7.15;100.00
73821;BME280;62150;43.582;1.456;2023-01-29T12:03:43;101169.28;;;6.97;100.00
73821;BME280;62150;43.582;1.456;2023-01-29T12:06:19;101162.81;;;6.47;100.00
73821;BME280;62150;43.582;1.456;2023-01-29T12:08:55;101162.13;;;6.19;100.00
73821;BME280;62150;43.582;1.456;2023-01-29T12:11:27;101160.94;;;6.73;100.00
73821;BME280;62150;43.582;1.456;2023-01-29T12:13:56;101168.59;;;6.77;100.00
73821;BME280;62150;43.582;1.456;2023-01-29T12:16:28;101157.47;;;6.87;100.00
73821;BME280;62150;43.582;1.456;2023-01-29T12:19:06;101158.09;;;7.12;100.00
73821;BME280;62150;43.582;1.456;2023-01-29T12:21:40;101162.38;;;7.08;100.00
73821;BME280;62150;43.582;1.456;2023-01-29T12:24:22;101163.59;;;6.60;100.00
73821;BME280;62150;43.582;1.456;2023-01-29T12:26:57;101158.19;;;6.98;100.00
73821;BME280;62150;43.582;1.456;2023-01-29T12:29:36;101152.91;;;7.21;100.00
73821;BME280;62150;43.582;1.456;2023-01-29T12:32:10;101150.97;;;7.46;100.00
73821;BME280;62150;43.582;1.456;2023-01-29T12:34:44;101145.09;;;7.33;100.00
73821;BME280;62150;43.582;1.456;2023-01-29T12:37:20;101139.13;;;7.35;100.00
73821;BME280;62150;43.582;1.456;2023-01-29T12:39:50;101140.75;;;7.44;100.00
73821;BME280;62150;43.582;1.456;2023-01-29T12:42:20;101130.59;;;8.08;100.00
73821;BME280;62150;43.582;1.456;2023-01-29T12:44:51;101129.78;;;7.33;100.00
73821;BME280;62150;43.582;1.456;2023-01-29T12:47:24;101124.63;;;7.36;100.00
73821;BME280;62150;43.582;1.456;2023-01-29T12:49:56;101131.09;;;6.82;100.00
73821;BME280;62150;43.582;1.456;2023-01-29T12:52:33;101129.41;;;6.81;100.00
73821;BME280;62150;43.582;1.456;2023-01-29T12:55:10;101128.84;;;7.42;100.00
73821;BME280;62150;43.582;1.456;2023-01-29T12:57:44;101130.88;;;7.06;100.00
73821;BME280;62150;43.582;1.456;2023-01-29T13:00:15;101124.25;;;6.88;100.00
73821;BME280;62150;43.582;1.456;2023-01-29T13:02:48;101122.59;;;6.80;100.00
73821;BME280;62150;43.582;1.456;2023-01-29T13:05:23;101127.72;;;6.77;100.00
73821;BME280;62150;43.582;1.456;2023-01-29T13:07:54;101135.19;;;7.01;100.00
73821;BME280;62150;43.582;1.456;2023-01-29T13:10:28;101132.63;;;6.99;100.00
73821;BME280;62150;43.582;1.456;2023-01-29T13:13:01;101133.50;;;6.98;100.00
73821;BME280;62150;43.582;1.456;2023-01-29T13:15:33;101141.88;;;7.14;100.00
73821;BME280;62150;43.582;1.456;2023-01-29T13:18:25;101138.44;;;7.21;100.00
73821;BME280;62150;43.582;1.456;2023-01-29T13:20:58;101132.78;;;6.83;100.00
73821;BME280;62150;43.582;1.456;2023-01-29T13:23:31;101145.44;;;6.96;100.00
73821;BME280;62150;43.582;1.456;2023-01-29T13:26:01;101130.81;;;7.15;100.00
73821;BME280;62150;43.582;1.456;2023-01-29T13:28:31;101136.63;;;7.28;100.00
73821;BME280;62150;43.582;1.456;2023-01-29T13:31:17;101130.78;;;7.18;100.00
73821;BME280;62150;43.582;1.456;2023-01-29T13:33:53;101133.66;;;6.82;100.00
73821;BME280;62150;43.582;1.456;2023-01-29T13:36:25;101125.78;;;7.04;100.00
73821;BME280;62150;43.582;1.456;2023-01-29T13:38:59;101133.34;;;7.18;100.00
73821;BME280;62150;43.582;1.456;2023-01-29T13:41:37;101134.56;;;6.75;100.00
73821;BME280;62150;43.582;1.456;2023-01-29T13:44:17;101126.84;;;6.79;100.00
73821;BME280;62150;43.582;1.456;2023-01-29T13:46:49;101120.72;;;7.00;100.00
73821;BME280;62150;43.582;1.456;2023-01-29T13:49:32;101123.47;;;6.79;100.00
73821;BME280;62150;43.582;1.456;2023-01-29T13:52:20;101123.25;;;7.03;100.00
73821;BME280;62150;43.582;1.456;2023-01-29T13:54:54;101121.41;;;7.17;100.00
73821;BME280;62150;43.582;1.456;2023-01-29T13:57:46;101124.34;;;6.71;100.00
73821;BME280;62150;43.582;1.456;2023-01-29T14:00:47;101124.25;;;6.87;100.00
73821;BME280;62150;43.582;1.456;2023-01-29T14:03:51;101121.53;;;7.02;100.00
73821;BME280;62150;43.582;1.456;2023-01-29T14:06:46;101118.97;;;7.05;100.00
73821;BME280;62150;43.582;1.456;2023-01-29T14:12:47;101129.09;;;7.17;100.00
73821;BME280;62150;43.582;1.456;2023-01-29T14:15:31;101132.75;;;6.89;100.00
73821;BME280;62150;43.582;1.456;2023-01-29T14:20:57;101123.66;;;7.48;100.00
73821;BME280;62150;43.582;1.456;2023-01-29T14:23:42;101116.63;;;7.66;100.00
73821;BME280;62150;43.582;1.456;2023-01-29T14:26:31;101123.38;;;6.89;100.00
73821;BME280;62150;43.582;1.456;2023-01-29T14:29:13;101122.41;;;7.01;100.00
73821;BME280;62150;43.582;1.456;2023-01-29T14:31:46;101130.34;;;6.69;100.00
73821;BME280;62150;43.582;1.456;2023-01-29T14:34:20;101130.03;;;7.05;100.00
73821;BME280;62150;43.582;1.456;2023-01-29T14:36:51;101114.59;;;7.18;100.00
73821;BME280;62150;43.582;1.456;2023-01-29T14:39:27;101121.50;;;7.10;100.00
73821;BME280;62150;43.582;1.456;2023-01-29T14:41:55;101113.38;;;7.54;100.00
73821;BME280;62150;43.582;1.456;2023-01-29T14:44:47;101118.00;;;7.20;100.00
73821;BME280;62150;43.582;1.456;2023-01-29T14:47:18;101124.88;;;7.12;100.00
73821;BME280;62150;43.582;1.456;2023-01-29T14:49:53;101119.22;;;6.78;100.00
73821;BME280;62150;43.582;1.456;2023-01-29T14:52:24;101123.75;;;7.38;100.00
73821;BME280;62150;43.582;1.456;2023-01-29T14:54:56;101120.53;;;7.21;100.00
73821;BME280;62150;43.582;1.456;2023-01-29T14:57:26;101128.72;;;7.54;100.00
73821;BME280;62150;43.582;1.456;2023-01-29T14:59:59;101119.81;;;7.07;100.00
73821;BME280;62150;43.582;1.456;2023-01-29T15:02:36;101122.09;;;7.34;100.00
73821;BME280;62150;43.582;1.456;2023-01-29T15:05:08;101126.63;;;7.05;100.00
73821;BME280;62150;43.582;1.456;2023-01-29T15:07:40;101120.38;;;7.36;100.00
73821;BME280;62150;43.582;1.456;2023-01-29T15:10:17;101128.41;;;6.95;100.00
73821;BME280;62150;43.582;1.456;2023-01-29T15:12:49;101127.25;;;7.28;100.00
73821;BME280;62150;43.582;1.456;2023-01-29T15:15:28;101128.22;;;7.18;100.00
73821;BME280;62150;43.582;1.456;2023-01-29T15:18:02;101135.38;;;6.80;100.00
73821;BME280;62150;43.582;1.456;2023-01-29T15:20:33;101138.53;;;7.07;100.00
73821;BME280;62150;43.582;1.456;2023-01-29T15:23:01;101137.69;;;7.09;100.00
73821;BME280;62150;43.582;1.456;2023-01-29T15:25:34;101144.75;;;6.79;100.00
73821;BME280;62150;43.582;1.456;2023-01-29T15:28:03;101141.25;;;6.89;100.00
73821;BME280;62150;43.582;1.456;2023-01-29T15:30:37;101140.41;;;6.90;100.00
73821;BME280;62150;43.582;1.456;2023-01-29T15:33:08;101142.66;;;7.25;100.00
73821;BME280;62150;43.582;1.456;2023-01-29T15:35:37;101148.16;;;6.75;100.00
73821;BME280;62150;43.582;1.456;2023-01-29T15:38:16;101145.44;;;6.95;100.00
73821;BME280;62150;43.582;1.456;2023-01-29T15:40:51;101149.91;;;6.71;100.00
73821;BME280;62150;43.582;1.456;2023-01-29T15:43:20;101148.06;;;6.89;100.00
73821;BME280;62150;43.582;1.456;2023-01-29T15:45:51;101146.94;;;7.22;100.00
73821;BME280;62150;43.582;1.456;2023-01-29T15:48:23;101149.63;;;7.03;100.00
73821;BME280;62150;43.582;1.456;2023-01-29T15:50:54;101151.53;;;6.83;100.00
73821;BME280;62150;43.582;1.456;2023-01-29T15:53:29;101155.78;;;6.83;100.00
73821;BME280;62150;43.582;1.456;2023-01-29T15:55:58;101146.19;;;7.09;100.00
73821;BME280;62150;43.582;1.456;2023-01-29T15:58:29;101157.97;;;7.25;100.00
73821;BME280;62150;43.582;1.456;2023-01-29T16:01:00;101162.44;;;7.02;100.00
73821;BME280;62150;43.582;1.456;2023-01-29T16:03:31;101157.19;;;7.17;100.00
73821;BME280;62150;43.582;1.456;2023-01-29T16:06:00;101168.41;;;6.98;100.00
73821;BME280;62150;43.582;1.456;2023-01-29T16:08:28;101168.41;;;6.98;100.00
73821;BME280;62150;43.582;1.456;2023-01-29T16:10:57;101169.22;;;7.03;100.00
73821;BME280;62150;43.582;1.456;2023-01-29T16:13:27;101163.25;;;7.04;100.00
73821;BME280;62150;43.582;1.456;2023-01-29T16:15:57;101162.53;;;6.93;100.00
73821;BME280;62150;43.582;1.456;2023-01-29T16:18:29;101159.19;;;6.80;100.00
73821;BME280;62150;43.582;1.456;2023-01-29T16:20:59;101168.34;;;7.07;100.00
73821;BME280;62150;43.582;1.456;2023-01-29T16:23:34;101166.66;;;7.06;100.00
73821;BME280;62150;43.582;1.456;2023-01-29T16:26:06;101167.72;;;6.81;100.00
73821;BME280;62150;43.582;1.456;2023-01-29T16:28:39;101167.88;;;6.58;100.00
73821;BME280;62150;43.582;1.456;2023-01-29T16:31:07;101172.94;;;6.59;100.00
73821;BME280;62150;43.582;1.456;2023-01-29T16:33:39;101165.41;;;6.44;100.00
73821;BME280;62150;43.582;1.456;2023-01-29T16:36:13;101172.22;;;6.42;100.00
73821;BME280;62150;43.582;1.456;2023-01-29T16:38:46;101169.59;;;6.54;100.00
73821;BME280;62150;43.582;1.456;2023-01-29T16:41:26;101173.84;;;6.58;100.00
73821;BME280;62150;43.582;1.456;2023-01-29T16:43:57;101173.78;;;6.61;100.00
73821;BME280;62150;43.582;1.456;2023-01-29T16:46:30;101175.66;;;6.32;100.00
73821;BME280;62150;43.582;1.456;2023-01-29T16:49:00;101184.84;;;6.60;100.00
73821;BME280;62150;43.582;1.456;2023-01-29T16:51:29;101180.47;;;6.81;100.00
73821;BME280;62150;43.582;1.456;2023-01-29T16:53:59;101183.22;;;6.56;100.00
73821;BME280;62150;43.582;1.456;2023-01-29T16:56:29;101186.69;;;6.40;100.00
73821;BME280;62150;43.582;1.456;2023-01-29T16:58:59;101182.41;;;6.42;100.00
73821;BME280;62150;43.582;1.456;2023-01-29T17:01:29;101194.31;;;6.48;100.00
73821;BME280;62150;43.582;1.456;2023-01-29T17:04:05;101193.63;;;6.14;100.00
73821;BME280;62150;43.582;1.456;2023-01-29T17:06:34;101194.47;;;6.11;100.00
73821;BME280;62150;43.582;1.456;2023-01-29T17:09:03;101195.34;;;6.04;100.00
73821;BME280;62150;43.582;1.456;2023-01-29T17:11:34;101200.41;;;6.22;100.00
73821;BME280;62150;43.582;1.456;2023-01-29T17:14:05;101199.47;;;6.31;100.00
73821;BME280;62150;43.582;1.456;2023-01-29T17:16:35;101216.59;;;6.09;100.00
73821;BME280;62150;43.582;1.456;2023-01-29T17:19:15;101208.84;;;6.32;100.00
73821;BME280;62150;43.582;1.456;2023-01-29T17:21:45;101206.34;;;6.21;100.00
73821;BME280;62150;43.582;1.456;2023-01-29T17:24:12;101221.63;;;6.26;100.00
73821;BME280;62150;43.582;1.456;2023-01-29T17:26:40;101208.78;;;6.43;100.00
73821;BME280;62150;43.582;1.456;2023-01-29T17:29:11;101215.63;;;6.36;100.00
73821;BME280;62150;43.582;1.456;2023-01-29T17:31:40;101227.56;;;6.32;100.00
73821;BME280;62150;43.582;1.456;2023-01-29T17:34:11;101225.84;;;6.36;100.00
73821;BME280;62150;43.582;1.456;2023-01-29T17:36:39;101229.25;;;6.32;100.00
73821;BME280;62150;43.582;1.456;2023-01-29T17:39:15;101234.31;;;6.39;100.00
73821;BME280;62150;43.582;1.456;2023-01-29T17:41:44;101230.19;;;6.19;100.00
73821;BME280;62150;43.582;1.456;2023-01-29T17:44:13;101229.31;;;6.20;100.00
73821;BME280;62150;43.582;1.456;2023-01-29T17:46:41;101235.19;;;6.40;100.00
73821;BME280;62150;43.582;1.456;2023-01-29T17:49:22;101234.44;;;6.18;100.00
73821;BME280;62150;43.582;1.456;2023-01-29T17:51:50;101235.16;;;6.43;100.00
73821;BME280;62150;43.582;1.456;2023-01-29T17:54:18;101232.66;;;6.34;100.00
73821;BME280;62150;43.582;1.456;2023-01-29T17:56:46;101234.34;;;6.38;100.00
73821;BME280;62150;43.582;1.456;2023-01-29T17:59:14;101234.44;;;6.12;100.00
73821;BME280;62150;43.582;1.456;2023-01-29T18:01:42;101235.19;;;6.37;100.00
73821;BME280;62150;43.582;1.456;2023-01-29T18:04:12;101233.56;;;6.21;100.00
73821;BME280;62150;43.582;1.456;2023-01-29T18:06:41;101237.81;;;6.19;100.00
73821;BME280;62150;43.582;1.456;2023-01-29T18:09:12;101244.66;;;6.12;100.00
73821;BME280;62150;43.582;1.456;2023-01-29T18:11:40;101247.19;;;6.17;100.00
73821;BME280;62150;43.582;1.456;2023-01-29T18:14:08;101247.13;;;6.26;100.00
73821;BME280;62150;43.582;1.456;2023-01-29T18:16:37;101247.13;;;6.27;100.00
73821;BME280;62150;43.582;1.456;2023-01-29T18:19:14;101247.03;;;6.56;100.00
73821;BME280;62150;43.582;1.456;2023-01-29T18:21:42;101259.88;;;6.32;100.00
73821;BME280;62150;43.582;1.456;2023-01-29T18:24:10;101264.19;;;6.21;100.00
73821;BME280;62150;43.582;1.456;2023-01-29T18:26:37;101265.91;;;6.10;100.00
73821;BME280;62150;43.582;1.456;2023-01-29T18:29:05;101259.94;;;6.18;100.00
73821;BME280;62150;43.582;1.456;2023-01-29T18:31:32;101262.50;;;6.20;100.00
73821;BME280;62150;43.582;1.456;2023-01-29T18:34:00;101265.88;;;6.23;100.00
73821;BME280;62150;43.582;1.456;2023-01-29T18:36:29;101267.56;;;6.26;100.00
73821;BME280;62150;43.582;1.456;2023-01-29T18:38:57;101264.22;;;6.05;100.00
73821;BME280;62150;43.582;1.456;2023-01-29T18:41:25;101262.47;;;6.23;100.00
73821;BME280;62150;43.582;1.456;2023-01-29T18:43:52;101268.38;;;6.34;100.00
73821;BME280;62150;43.582;1.456;2023-01-29T18:46:20;101262.50;;;6.21;100.00
73821;BME280;62150;43.582;1.456;2023-01-29T18:48:49;101264.06;;;6.51;100.00
73821;BME280;62150;43.582;1.456;2023-01-29T18:51:16;101267.50;;;6.41;100.00
73821;BME280;62150;43.582;1.456;2023-01-29T18:53:48;101281.13;;;6.40;100.00
73821;BME280;62150;43.582;1.456;2023-01-29T18:56:17;101276.06;;;6.25;100.00
73821;BME280;62150;43.582;1.456;2023-01-29T18:58:44;101277.78;;;6.21;100.00
73821;BME280;62150;43.582;1.456;2023-01-29T19:01:13;101277.81;;;6.20;100.00
73821;BME280;62150;43.582;1.456;2023-01-29T19:03:41;101282.91;;;6.11;100.00
73821;BME280;62150;43.582;1.456;2023-01-29T19:06:10;101282.84;;;6.33;100.00
73821;BME280;62150;43.582;1.456;2023-01-29T19:08:38;101277.81;;;6.14;100.00
73821;BME280;62150;43.582;1.456;2023-01-29T19:11:07;101273.47;;;6.34;100.00
73821;BME280;62150;43.582;1.456;2023-01-29T19:13:37;101272.72;;;6.17;100.00
73821;BME280;62150;43.582;1.456;2023-01-29T19:16:07;101274.41;;;6.12;100.00
73821;BME280;62150;43.582;1.456;2023-01-29T19:18:35;101275.19;;;6.29;100.00
73821;BME280;62150;43.582;1.456;2023-01-29T19:21:06;101271.75;;;6.44;100.00
73821;BME280;62150;43.582;1.456;2023-01-29T19:23:34;101268.47;;;6.13;100.00
73821;BME280;62150;43.582;1.456;2023-01-29T19:26:01;101273.47;;;6.35;100.00
73821;BME280;62150;43.582;1.456;2023-01-29T19:28:30;101270.06;;;6.44;100.00
73821;BME280;62150;43.582;1.456;2023-01-29T19:30:59;101276.09;;;6.22;100.00
73821;BME280;62150;43.582;1.456;2023-01-29T19:33:27;101277.84;;;5.95;100.00
73821;BME280;62150;43.582;1.456;2023-01-29T19:35:55;101280.38;;;6.08;100.00
73821;BME280;62150;43.582;1.456;2023-01-29T19:38:23;101286.34;;;6.05;100.00
73821;BME280;62150;43.582;1.456;2023-01-29T19:40:50;101285.47;;;6.20;100.00
73821;BME280;62150;43.582;1.456;2023-01-29T19:43:18;101282.84;;;6.29;100.00
73821;BME280;62150;43.582;1.456;2023-01-29T19:45:47;101281.97;;;6.39;100.00
73821;BME280;62150;43.582;1.456;2023-01-29T19:48:16;101278.59;;;6.35;100.00
73821;BME280;62150;43.582;1.456;2023-01-29T19:50:51;101282.91;;;6.18;100.00
73821;BME280;62150;43.582;1.456;2023-01-29T19:53:18;101292.28;;;5.99;100.00
73821;BME280;62150;43.582;1.456;2023-01-29T19:55:46;101292.28;;;5.93;100.00
73821;BME280;62150;43.582;1.456;2023-01-29T19:58:13;101287.16;;;6.13;100.00
73821;BME280;62150;43.582;1.456;2023-01-29T20:00:41;101293.13;;;6.04;100.00
73821;BME280;62150;43.582;1.456;2023-01-29T20:03:10;101297.38;;;6.16;100.00